This is the latest recevied weather packets stored in our database for station/object KD0SBN-3. If no packets are shown the sender has not sent any weather packets the latest 10 day(s).
| Time | Temp. | Humidity | Pressure | Rain* | Wind** | Luminosity | Snow |
|---|---|---|---|---|---|---|---|
| 1777772611 | 8.33° C | 36% | 1030.1 hPa | 0 mm | - | 6 W/m² | - |
| 1777772308 | 8.89° C | 36% | 1030.1 hPa | 0 mm | - | 8 W/m² | - |
| 1777772005 | 8.89° C | 35% | 1030.1 hPa | 0 mm | - | 10 W/m² | - |
| 1777771702 | 9.44° C | 34% | 1030 hPa | 0 mm | - | 13 W/m² | - |
| 1777771400 | 10° C | 33% | 1030 hPa | 0 mm | - | 15 W/m² | - |
| 1777771096 | 10° C | 34% | 1029.8 hPa | 0 mm | - | 17 W/m² | - |
| 1777770793 | 10° C | 33% | 1030 hPa | 0 mm | - | 19 W/m² | - |
| 1777770489 | 10° C | 33% | 1029.7 hPa | 0 mm | - | 20 W/m² | - |
| 1777770187 | 10.56° C | 32% | 1029.7 hPa | 0 mm | - | 24 W/m² | - |
| 1777769884 | 10.56° C | 32% | 1030 hPa | 0 mm | - | 31 W/m² | - |
| 1777769581 | 10.56° C | 32% | 1029.8 hPa | 0 mm | - | 27 W/m² | - |
| 1777769276 | 11.67° C | 30% | 1029.7 hPa | 0 mm | - | 37 W/m² | - |
| 1777768975 | 12.22° C | 29% | 1029.6 hPa | 0 mm | - | 54 W/m² | - |
| 1777768672 | 12.22° C | 29% | 1029.8 hPa | 0 mm | - | 58 W/m² | - |
| 1777768369 | 11.67° C | 30% | 1029.6 hPa | 0 mm | - | 64 W/m² | - |
| 1777768065 | 11.67° C | 31% | 1029.6 hPa | 0 mm | - | 75 W/m² | - |
| 1777767762 | 11.67° C | 30% | 1029.7 hPa | 0 mm | - | 86 W/m² | - |
| 1777767458 | 12.22° C | 30% | 1029.7 hPa | 0 mm | - | 98 W/m² | - |
| 1777767155 | 11.67° C | 30% | 1029.7 hPa | 0 mm | - | 97 W/m² | - |
| 1777766853 | 10.56° C | 31% | 1029.8 hPa | 0 mm | - | 57 W/m² | - |
| 1777766550 | 10° C | 31% | 1030 hPa | 0 mm | - | 53 W/m² | - |
| 1777766247 | 10.56° C | 31% | 1029.8 hPa | 0 mm | - | 56 W/m² | - |
| 1777765945 | 10.56° C | 33% | 1029.8 hPa | 0 mm | - | 63 W/m² | - |
| 1777765641 | 10.56° C | 31% | 1029.7 hPa | 0 mm | - | 72 W/m² | - |
| 1777765338 | 10.56° C | 31% | 1029.6 hPa | 0 mm | - | 70 W/m² | - |
* Rain latest hour (hover to see other rain measurements)
** Current wind speed in m/s (hover to see current wind gust speed)